Bexar, Arkansas
Current Conditions -  °F | °C
As of 4:53 PM on Wednesday 22 Oct 2014 (Local Time) from KBPK Reporting Station
Clear Clear  
Wind Chill: 67°   Ceiling: Unl
Heat Index: 67°   Visibility: 10mi
Dew Point: 47°   Wind: 7mph
Humidity: 49%   Direction: 120°ESE
Pressure: 30.17"   Gusts: NA
Location:  36.29°N, 92°W
Report Text: KBPK 222153Z AUTO 12006KT 10SM CLR 19/08 A3017 RMK AO2 SLP212 T01940083
Loading
Personal Weather Stations






























Interactive Weather Map New forecast layout! Learn more

10-Day Weather Forecast

Advertisements
Track Severe Weather on mobile